Time;durP1;ratioP1;P1;durP2;ratioP2;P2;SDS_P1;SDS_P2;PMS_P1;PMS_P2;Temp;Humidity;BMP_temperature;BMP_pressure;BME280_temperature;BME280_humidity;BME280_pressure;Samples;Min_cycle;Max_cycle;Signal;HPM_P1;HPM_P2
2023/04/29 00:00:53;;;;;;;2.83;1.85;;;;;;;12.70;100.00;98284.59;4132399;28;20680;-48
2023/04/29 00:02:55;;;;;;;2.40;2.20;;;;;;;12.63;100.00;98283.22;4132354;28;20710;-47
2023/04/29 00:04:57;;;;;;;2.00;1.90;;;;;;;12.63;100.00;98288.72;4123785;28;20210;-46
2023/04/29 00:07:00;;;;;;;2.13;1.95;;;;;;;12.61;100.00;98288.13;4123965;28;20217;-46
2023/04/29 00:09:03;;;;;;;3.00;2.80;;;;;;;12.63;100.00;98292.28;4115977;28;20235;-48
2023/04/29 00:11:05;;;;;;;2.85;2.65;;;;;;;12.58;100.00;98291.44;4124866;28;20206;-47
2023/04/29 00:13:07;;;;;;;2.53;2.30;;;;;;;12.47;100.00;98285.06;4123523;28;20225;-47
2023/04/29 00:15:10;;;;;;;3.33;3.05;;;;;;;12.41;100.00;98288.88;4123323;28;20219;-47
2023/04/29 00:17:11;;;;;;;2.95;2.70;;;;;;;12.37;100.00;98285.00;4123407;28;20628;-48
2023/04/29 00:19:13;;;;;;;6.13;3.30;;;;;;;12.39;100.00;98280.09;4132085;28;20655;-46
2023/04/29 00:21:15;;;;;;;5.03;3.70;;;;;;;12.31;100.00;98277.84;4124716;28;20755;-47
2023/04/29 00:23:17;;;;;;;4.07;3.55;;;;;;;12.33;100.00;98266.63;4124754;28;20206;-47
2023/04/29 00:25:19;;;;;;;3.20;3.00;;;;;;;12.41;100.00;98283.41;4123642;28;20214;-49
2023/04/29 00:27:21;;;;;;;3.60;3.33;;;;;;;12.46;100.00;98277.09;4123213;28;20301;-47
2023/04/29 00:29:23;;;;;;;6.45;3.47;;;;;;;12.35;100.00;98278.97;4123263;28;20358;-47
2023/04/29 00:31:25;;;;;;;3.42;3.10;;;;;;;12.34;100.00;98280.06;4123069;28;20210;-48
2023/04/29 00:33:27;;;;;;;3.40;3.08;;;;;;;12.36;100.00;98283.38;4123599;28;20207;-47
2023/04/29 00:35:29;;;;;;;5.80;3.15;;;;;;;12.39;100.00;98277.38;4124715;28;20664;-47
2023/04/29 00:37:31;;;;;;;10.25;3.40;;;;;;;12.40;100.00;98278.16;4131778;28;20238;-48
2023/04/29 00:39:33;;;;;;;3.33;2.95;;;;;;;12.42;100.00;98276.81;4106922;28;20255;-46
2023/04/29 00:41:35;;;;;;;3.28;2.97;;;;;;;12.43;100.00;98281.22;4140437;28;20220;-48
2023/04/29 00:43:37;;;;;;;3.17;2.88;;;;;;;12.43;100.00;98280.41;4124139;28;20231;-47
2023/04/29 00:45:39;;;;;;;3.13;2.92;;;;;;;12.37;100.00;98279.53;4124402;28;20222;-49
2023/04/29 00:47:41;;;;;;;3.17;2.97;;;;;;;12.40;100.00;98279.00;4123466;28;20245;-48
2023/04/29 00:49:43;;;;;;;3.85;3.55;;;;;;;12.41;100.00;98286.16;4122956;28;20268;-48
2023/04/29 00:51:45;;;;;;;3.33;3.03;;;;;;;12.35;100.00;98281.72;4123301;28;20211;-48
2023/04/29 00:53:48;;;;;;;2.92;2.67;;;;;;;12.33;100.00;98286.66;4108152;28;20348;-48
2023/04/29 00:55:50;;;;;;;3.03;2.83;;;;;;;12.32;100.00;98287.75;4108107;28;20596;-48
2023/04/29 00:57:53;;;;;;;4.68;2.88;;;;;;;12.33;100.00;98291.31;4120644;28;20222;-47
2023/04/29 00:59:57;;;;;;;4.10;2.92;;;;;;;12.35;100.00;98289.94;4106000;28;20231;-48
2023/04/29 01:02:00;;;;;;;3.90;3.60;;;;;;;12.35;100.00;98295.44;4113591;28;20207;-50
2023/04/29 01:04:04;;;;;;;2.97;2.58;;;;;;;12.30;100.00;98289.91;4106791;28;20215;-47
2023/04/29 01:06:46;;;;;;;2.78;2.45;;;;;;;12.18;100.00;98297.53;4123822;28;20248;-48
2023/04/29 01:09:05;;;;;;;3.00;2.45;;;;;;;12.23;100.00;98297.56;4120542;28;20297;-48
2023/04/29 01:11:09;;;;;;;3.00;2.72;;;;;;;12.17;100.00;98304.09;4122566;28;20261;-49
2023/04/29 01:13:18;;;;;;;2.38;2.17;;;;;;;12.21;100.00;98305.25;4127465;28;20445;-48
2023/04/29 01:15:29;;;;;;;3.10;2.47;;;;;;;12.20;100.00;98314.56;4122699;28;20250;-48
2023/04/29 01:17:55;;;;;;;2.20;2.05;;;;;;;12.13;100.00;98310.41;4128373;28;20193;-48
2023/04/29 01:19:58;;;;;;;2.65;2.45;;;;;;;12.06;100.00;98309.81;4129423;28;20206;-48
2023/04/29 01:21:59;;;;;;;2.85;2.65;;;;;;;12.12;100.00;98319.72;4122311;28;20756;-48
2023/04/29 01:24:01;;;;;;;3.05;2.85;;;;;;;12.07;100.00;98317.78;4122526;28;20215;-48
2023/04/29 01:26:04;;;;;;;3.70;3.45;;;;;;;12.02;100.00;98314.16;4122159;28;20256;-47
2023/04/29 01:28:40;;;;;;;3.15;2.00;;;;;;;11.94;100.00;98318.22;4122348;28;20646;-48
2023/04/29 01:30:50;;;;;;;2.78;2.58;;;;;;;11.92;100.00;98312.16;4127627;28;20209;-49
2023/04/29 01:33:12;;;;;;;3.15;2.95;;;;;;;11.89;100.00;98320.94;4123283;28;20692;-49
2023/04/29 01:35:38;;;;;;;2.40;2.17;;;;;;;11.88;100.00;98323.94;4123686;28;20215;-48
2023/04/29 01:37:44;;;;;;;4.80;2.38;;;;;;;11.88;100.00;98316.53;4134730;28;20585;-50
2023/04/29 01:39:46;;;;;;;2.08;1.98;;;;;;;11.85;100.00;98322.53;4139514;28;20229;-49
2023/04/29 01:41:57;;;;;;;2.75;2.05;;;;;;;11.86;100.00;98326.97;4139834;28;20268;-48
2023/04/29 01:44:03;;;;;;;2.85;2.00;;;;;;;11.92;100.00;98309.41;4127740;28;20205;-49
2023/04/29 01:46:17;;;;;;;2.08;1.88;;;;;;;11.79;100.00;98326.34;4122706;28;20681;-48
2023/04/29 01:48:20;;;;;;;2.03;1.83;;;;;;;11.86;100.00;98306.94;4130566;28;20241;-48
2023/04/29 01:50:22;;;;;;;1.70;1.50;;;;;;;11.81;100.00;98313.19;4104222;28;20223;-49
2023/04/29 01:53:04;;;;;;;1.75;1.63;;;;;;;11.73;100.00;98316.44;4122106;28;20207;-49
2023/04/29 01:55:06;;;;;;;1.75;1.52;;;;;;;11.70;100.00;98311.47;4121586;28;20207;-48
2023/04/29 01:57:08;;;;;;;1.95;1.60;;;;;;;11.73;100.00;98321.91;4114423;28;20215;-49
2023/04/29 01:59:10;;;;;;;5.55;1.25;;;;;;;11.72;100.00;98314.75;4121578;28;20238;-49
2023/04/29 02:01:14;;;;;;;1.15;1.05;;;;;;;11.76;100.00;98318.63;4123530;28;20207;-48
2023/04/29 02:03:16;;;;;;;1.25;1.20;;;;;;;11.70;100.00;98316.94;4114333;28;20683;-48
2023/04/29 02:05:18;;;;;;;1.40;1.30;;;;;;;11.72;100.00;98325.72;4122051;28;20209;-49
2023/04/29 02:07:21;;;;;;;3.08;1.42;;;;;;;11.66;100.00;98321.31;4121860;28;20207;-49
2023/04/29 02:09:23;;;;;;;1.20;1.10;;;;;;;11.68;100.00;98324.63;4122162;28;20226;-48
2023/04/29 02:11:24;;;;;;;1.45;1.33;;;;;;;11.64;100.00;98323.47;4130719;28;20589;-50
2023/04/29 02:13:26;;;;;;;1.15;1.05;;;;;;;11.65;100.00;98325.13;4122651;28;20269;-48
2023/04/29 02:15:28;;;;;;;1.25;1.20;;;;;;;11.65;100.00;98316.09;4121789;28;20268;-49
2023/04/29 02:17:30;;;;;;;1.30;1.20;;;;;;;11.58;100.00;98324.50;4106010;28;20215;-48
2023/04/29 02:19:32;;;;;;;1.95;1.10;;;;;;;11.53;100.00;98327.19;4105305;28;20681;-48
2023/04/29 02:21:34;;;;;;;1.60;1.50;;;;;;;11.58;100.00;98338.22;4130466;28;20201;-48
2023/04/29 02:23:36;;;;;;;1.25;1.17;;;;;;;11.57;100.00;98333.78;4125415;28;20213;-49
2023/04/29 02:25:38;;;;;;;2.88;1.58;;;;;;;11.19;100.00;98339.47;4121600;28;20222;-48
2023/04/29 02:27:40;;;;;;;7.53;1.55;;;;;;;11.28;100.00;98332.44;4106783;28;20211;-48
2023/04/29 02:29:42;;;;;;;1.95;1.67;;;;;;;11.09;100.00;98333.88;4140086;28;20699;-47
2023/04/29 02:31:44;;;;;;;3.72;1.88;;;;;;;11.12;100.00;98333.34;4130343;28;20248;-49
2023/04/29 02:33:46;;;;;;;2.35;2.15;;;;;;;11.11;100.00;98334.44;4127462;28;20233;-48
2023/04/29 02:35:48;;;;;;;2.25;1.60;;;;;;;11.10;100.00;98337.44;4122836;28;20293;-47
2023/04/29 02:37:49;;;;;;;4.80;2.20;;;;;;;11.12;100.00;98344.31;4123003;28;20222;-49
2023/04/29 02:39:51;;;;;;;1.98;1.65;;;;;;;11.06;100.00;98341.78;4106958;28;20231;-49
2023/04/29 02:41:55;;;;;;;1.45;1.35;;;;;;;11.02;100.00;98344.22;4119699;28;20211;-48
2023/04/29 02:43:57;;;;;;;1.80;1.70;;;;;;;11.07;100.00;98348.91;4122834;28;20210;-48
2023/04/29 02:45:59;;;;;;;10.75;1.40;;;;;;;11.05;100.00;98340.94;4130067;28;20210;-50
2023/04/29 02:48:01;;;;;;;2.05;1.45;;;;;;;11.10;100.00;98341.00;4121478;28;20645;-49
2023/04/29 02:50:03;;;;;;;2.25;1.80;;;;;;;11.18;100.00;98346.00;4122357;28;20210;-49
2023/04/29 02:52:05;;;;;;;1.80;1.70;;;;;;;11.11;100.00;98334.44;4105458;28;20215;-48
2023/04/29 02:54:07;;;;;;;1.50;1.40;;;;;;;11.09;100.00;98339.34;4121523;28;20557;-49
2023/04/29 02:56:09;;;;;;;3.45;1.48;;;;;;;11.16;100.00;98342.72;4105493;28;20261;-49
2023/04/29 02:58:11;;;;;;;2.65;1.30;;;;;;;11.08;100.00;98334.97;4121825;28;20211;-47
2023/04/29 03:00:13;;;;;;;5.47;1.15;;;;;;;11.12;100.00;98338.81;4140817;28;20210;-48
2023/04/29 03:02:16;;;;;;;2.53;1.40;;;;;;;11.09;100.00;98342.09;4122888;28;20205;-48
2023/04/29 03:04:18;;;;;;;1.50;1.40;;;;;;;11.18;100.00;98340.53;4121309;28;20216;-48
2023/04/29 03:06:20;;;;;;;1.70;1.10;;;;;;;11.08;100.00;98340.44;4124667;28;20206;-47
2023/04/29 03:08:22;;;;;;;1.17;1.08;;;;;;;11.05;100.00;98335.47;4119113;28;20693;-49
2023/04/29 03:10:24;;;;;;;1.40;1.27;;;;;;;11.13;100.00;98332.28;4130151;28;20595;-48
2023/04/29 03:12:26;;;;;;;1.20;1.10;;;;;;;11.10;100.00;98338.25;4130031;28;20261;-48
2023/04/29 03:14:28;;;;;;;1.85;1.40;;;;;;;11.07;100.00;98333.31;4121417;28;20294;-47
2023/04/29 03:16:30;;;;;;;1.38;1.27;;;;;;;11.10;100.00;98338.25;4123277;28;20664;-47
2023/04/29 03:18:32;;;;;;;1.17;1.10;;;;;;;11.05;100.00;98335.47;4123836;28;20257;-47
2023/04/29 03:20:34;;;;;;;1.40;1.30;;;;;;;10.96;100.00;98339.75;4125034;28;20211;-48
2023/04/29 03:22:36;;;;;;;1.20;1.10;;;;;;;10.98;100.00;98348.53;4125568;28;20211;-50
2023/04/29 03:24:38;;;;;;;1.30;1.10;;;;;;;10.98;100.00;98345.78;4125550;28;20221;-48
2023/04/29 03:26:41;;;;;;;1.33;1.00;;;;;;;10.96;100.00;98347.97;4124521;28;20206;-49
2023/04/29 03:28:43;;;;;;;1.67;1.38;;;;;;;10.98;100.00;98345.78;4124405;28;20620;-48
2023/04/29 03:30:45;;;;;;;1.02;1.02;;;;;;;10.93;100.00;98345.75;4125745;28;20214;-50
2023/04/29 03:32:47;;;;;;;1.52;1.42;;;;;;;10.99;100.00;98349.38;4126008;28;20210;-50
2023/04/29 03:34:49;;;;;;;1.73;1.52;;;;;;;10.99;100.00;98350.22;4125316;28;20215;-49
2023/04/29 03:36:51;;;;;;;1.25;1.15;;;;;;;11.07;100.00;98355.22;4132756;28;20619;-50
2023/04/29 03:38:53;;;;;;;4.05;1.98;;;;;;;10.97;100.00;98355.09;4132455;28;20284;-48
2023/04/29 03:40:55;;;;;;;2.22;1.80;;;;;;;10.84;100.00;98355.47;4108129;28;20305;-49
2023/04/29 03:42:57;;;;;;;1.30;1.20;;;;;;;10.78;100.00;98355.69;4108608;28;20215;-49
2023/04/29 03:44:58;;;;;;;1.42;1.33;;;;;;;10.90;100.00;98357.19;4126353;28;20616;-49
2023/04/29 03:47:00;;;;;;;1.63;1.52;;;;;;;10.87;100.00;98358.81;4142302;28;20205;-48
2023/04/29 03:49:03;;;;;;;1.65;1.55;;;;;;;10.82;100.00;98358.75;4123566;28;20798;-50
2023/04/29 03:51:05;;;;;;;2.45;1.40;;;;;;;10.85;100.00;98361.81;4141302;28;20650;-48
2023/04/29 03:53:07;;;;;;;1.45;1.35;;;;;;;10.84;100.00;98369.16;4129234;28;20272;-48
2023/04/29 03:55:10;;;;;;;1.52;1.15;;;;;;;10.85;100.00;98365.34;4124978;28;20265;-48
2023/04/29 03:57:12;;;;;;;1.50;1.40;;;;;;;10.84;100.00;98371.91;4121553;28;20225;-48
2023/04/29 03:59:14;;;;;;;1.27;1.27;;;;;;;10.84;100.00;98368.38;4124994;28;20297;-48
2023/04/29 04:01:16;;;;;;;1.17;1.17;;;;;;;10.81;100.00;98373.53;4132528;28;20260;-49
2023/04/29 04:03:17;;;;;;;1.63;1.20;;;;;;;10.90;100.00;98364.59;4130465;28;20642;-48
2023/04/29 04:05:23;;;;;;;2.30;1.38;;;;;;;10.77;100.00;98375.94;4124681;28;20202;-48
2023/04/29 04:07:26;;;;;;;1.13;1.13;;;;;;;10.74;100.00;98370.97;4125398;28;20210;-48
2023/04/29 04:09:28;;;;;;;1.33;1.33;;;;;;;10.74;100.00;98372.88;4141221;28;20283;-48
2023/04/29 04:11:30;;;;;;;3.63;1.75;;;;;;;10.59;100.00;98364.47;4123748;28;20606;-51
2023/04/29 04:13:32;;;;;;;1.50;1.40;;;;;;;10.65;100.00;98368.91;4123214;28;20214;-48
2023/04/29 04:15:34;;;;;;;1.25;1.20;;;;;;;10.61;100.00;98368.59;4123303;28;20225;-49
2023/04/29 04:17:36;;;;;;;1.63;1.52;;;;;;;10.56;100.00;98374.00;4108163;28;20262;-49
2023/04/29 04:19:38;;;;;;;7.20;1.45;;;;;;;10.42;100.00;98374.63;4132191;28;20292;-49
2023/04/29 04:21:41;;;;;;;1.55;1.45;;;;;;;10.30;100.00;98379.38;4125034;28;20218;-51
2023/04/29 04:23:43;;;;;;;2.58;1.55;;;;;;;10.43;100.00;98384.50;4123545;28;20738;-49
2023/04/29 04:25:48;;;;;;;1.65;1.55;;;;;;;10.48;100.00;98381.84;4140870;28;20206;-49
2023/04/29 04:27:51;;;;;;;2.08;1.88;;;;;;;10.35;100.00;98384.94;4128697;28;20304;-49
2023/04/29 04:29:53;;;;;;;3.60;1.52;;;;;;;10.52;100.00;98388.44;4123059;28;20242;-48
2023/04/29 04:31:55;;;;;;;3.72;2.10;;;;;;;10.48;100.00;98385.38;4128770;28;20734;-48
2023/04/29 04:33:58;;;;;;;1.33;1.23;;;;;;;10.49;100.00;98394.44;4130357;28;20224;-48
2023/04/29 04:36:00;;;;;;;1.52;1.42;;;;;;;10.43;100.00;98392.69;4124877;28;20202;-48
2023/04/29 04:38:02;;;;;;;2.50;1.52;;;;;;;10.36;100.00;98397.53;4131769;28;20447;-49
2023/04/29 04:40:10;;;;;;;1.40;1.30;;;;;;;10.51;100.00;98398.56;4141814;28;20622;-48
2023/04/29 04:42:12;;;;;;;10.60;1.75;;;;;;;10.53;100.00;98406.50;4124497;28;20657;-47
2023/04/29 04:44:13;;;;;;;2.03;1.67;;;;;;;10.56;100.00;98412.31;4124674;28;20244;-48
2023/04/29 04:46:16;;;;;;;1.60;1.50;;;;;;;10.52;100.00;98415.78;4142289;28;20269;-48
2023/04/29 04:48:18;;;;;;;1.98;1.70;;;;;;;10.62;100.00;98415.97;4124354;28;20245;-47
2023/04/29 04:50:19;;;;;;;3.25;2.08;;;;;;;10.52;100.00;98421.28;4124368;28;20210;-48
2023/04/29 04:52:21;;;;;;;3.13;2.10;;;;;;;10.51;100.00;98422.34;4131802;28;20584;-48
2023/04/29 04:54:23;;;;;;;1.63;1.52;;;;;;;10.56;100.00;98416.97;4124245;28;20234;-49
2023/04/29 04:56:25;;;;;;;1.85;1.50;;;;;;;10.66;100.00;98422.56;4123682;28;20217;-47
2023/04/29 04:58:27;;;;;;;1.65;1.50;;;;;;;10.74;100.00;98431.16;4122978;28;20233;-47
2023/04/29 05:00:29;;;;;;;1.85;1.75;;;;;;;10.67;100.00;98421.50;4140649;28;20225;-50
2023/04/29 05:02:31;;;;;;;2.20;2.00;;;;;;;10.77;100.00;98435.31;4131750;28;20290;-47
2023/04/29 05:04:32;;;;;;;1.90;1.80;;;;;;;10.79;100.00;98434.78;4140466;23;20269;-57
2023/04/29 05:06:34;;;;;;;2.30;2.00;;;;;;;10.85;100.00;98438.44;4123602;28;20225;-58
2023/04/29 05:08:36;;;;;;;2.45;2.13;;;;;;;10.72;100.00;98436.06;4122699;28;20241;-56
2023/04/29 05:10:37;;;;;;;1.85;1.75;;;;;;;10.71;100.00;98436.31;4107257;28;20210;-56
2023/04/29 05:12:39;;;;;;;2.30;2.10;;;;;;;10.75;100.00;98438.28;4125353;28;20588;-57
2023/04/29 05:14:40;;;;;;;2.38;2.17;;;;;;;10.87;100.00;98440.94;4123992;28;20336;-58
2023/04/29 05:16:44;;;;;;;2.08;1.88;;;;;;;10.77;100.00;98442.44;4122812;28;20227;-59
2023/04/29 05:18:45;;;;;;;1.73;1.63;;;;;;;10.77;100.00;98442.44;4125004;28;20320;-57
2023/04/29 05:20:47;;;;;;;2.47;2.28;;;;;;;10.84;100.00;98443.06;4121620;28;20209;-58
2023/04/29 05:22:49;;;;;;;2.83;2.40;;;;;;;10.81;100.00;98444.69;4125165;28;20563;-59
2023/04/29 05:24:51;;;;;;;2.72;2.53;;;;;;;10.90;100.00;98444.81;4123473;28;20214;-59
2023/04/29 05:26:53;;;;;;;1.85;1.75;;;;;;;11.02;100.00;98456.47;4123831;28;20210;-59
2023/04/29 05:28:54;;;;;;;2.70;1.98;;;;;;;10.99;100.00;98454.25;4123368;28;20233;-58
2023/04/29 05:30:56;;;;;;;1.67;1.58;;;;;;;11.06;100.00;98460.38;4123024;28;20202;-58
2023/04/29 05:32:58;;;;;;;3.45;2.35;;;;;;;10.96;100.00;98457.47;4125517;28;20242;-58
2023/04/29 05:34:59;;;;;;;2.45;2.25;;;;;;;11.01;100.00;98454.81;4125697;28;20202;-58
2023/04/29 05:37:01;;;;;;;2.40;2.10;;;;;;;11.00;100.00;98453.16;4123212;28;20220;-58
2023/04/29 05:39:03;;;;;;;2.50;1.92;;;;;;;11.07;100.00;98448.31;4121876;28;20227;-59
2023/04/29 05:41:05;;;;;;;2.42;2.22;;;;;;;11.18;100.00;98454.75;4106966;28;20218;-57
2023/04/29 05:43:06;;;;;;;3.90;2.25;;;;;;;11.23;100.00;98458.38;4123423;28;20210;-58
2023/04/29 05:45:08;;;;;;;1.98;1.88;;;;;;;11.27;100.00;98454.06;4121941;28;20214;-58
2023/04/29 05:47:10;;;;;;;5.75;1.60;;;;;;;11.29;100.00;98462.84;4123105;28;20289;-59
2023/04/29 05:49:12;;;;;;;1.92;1.77;;;;;;;11.35;100.00;98471.94;4124325;28;20230;-59
2023/04/29 05:51:13;;;;;;;1.88;1.77;;;;;;;11.38;100.00;98461.28;4124140;28;20202;-59
2023/04/29 05:53:15;;;;;;;1.90;1.80;;;;;;;11.44;100.00;98464.94;4118873;28;20211;-59
2023/04/29 05:55:16;;;;;;;2.65;2.08;;;;;;;11.46;100.00;98466.34;4122327;28;20202;-59
2023/04/29 05:57:18;;;;;;;2.80;2.03;;;;;;;11.53;100.00;98472.44;4121725;28;20207;-60
2023/04/29 05:59:19;;;;;;;3.03;2.45;;;;;;;11.58;100.00;98472.50;4121515;28;20241;-59
2023/04/29 06:01:21;;;;;;;2.03;1.92;;;;;;;11.67;100.00;98470.13;4120711;28;20219;-58
2023/04/29 06:03:22;;;;;;;3.08;2.70;;;;;;;11.75;100.00;98484.22;4121746;28;20206;-58
2023/04/29 06:05:25;;;;;;;1.92;1.75;;;;;;;11.80;100.00;98481.53;4121454;28;20313;-59
2023/04/29 06:07:27;;;;;;;2.25;2.05;;;;;;;12.04;100.00;98482.84;4123994;28;20257;-57
2023/04/29 06:09:29;;;;;;;2.20;2.08;;;;;;;12.08;100.00;98481.25;4122528;28;20321;-59
2023/04/29 06:11:30;;;;;;;2.35;1.80;;;;;;;12.15;100.00;98481.03;4122839;28;20642;-59
2023/04/29 06:13:32;;;;;;;2.65;2.45;;;;;;;12.19;100.00;98480.25;4122456;28;20238;-58
2023/04/29 06:15:33;;;;;;;3.72;3.33;;;;;;;12.28;100.00;98483.34;4123640;28;20224;-59
2023/04/29 06:17:35;;;;;;;2.40;2.20;;;;;;;12.18;100.00;98478.59;4123104;28;20210;-58
2023/04/29 06:19:36;;;;;;;2.50;2.30;;;;;;;12.24;100.00;98491.25;4121206;28;20328;-59
2023/04/29 06:21:38;;;;;;;2.90;2.60;;;;;;;12.32;100.00;98490.81;4121693;28;20689;-59
2023/04/29 06:23:40;;;;;;;2.60;2.40;;;;;;;12.38;100.00;98495.22;4120084;28;20216;-59
2023/04/29 06:25:41;;;;;;;3.60;2.33;;;;;;;12.38;100.00;98495.22;4122511;28;20239;-57
2023/04/29 06:27:43;;;;;;;3.25;2.45;;;;;;;12.42;100.00;98496.34;4122636;28;20205;-58
2023/04/29 06:29:44;;;;;;;3.92;2.17;;;;;;;12.63;100.00;98491.88;4125666;28;20213;-59
2023/04/29 06:31:46;;;;;;;2.95;2.70;;;;;;;12.50;100.00;98504.09;4125288;28;20198;-59
2023/04/29 06:33:48;;;;;;;4.50;2.28;;;;;;;12.56;100.00;98500.31;4123382;28;20694;-59
2023/04/29 06:35:49;;;;;;;3.28;1.85;;;;;;;12.65;100.00;98500.66;4105060;28;20213;-58
2023/04/29 06:37:51;;;;;;;2.78;2.58;;;;;;;12.55;100.00;98504.16;4124636;28;20797;-59
2023/04/29 06:39:53;;;;;;;3.00;2.25;;;;;;;12.76;100.00;98507.88;4119494;28;20222;-59
2023/04/29 06:41:57;;;;;;;3.55;3.25;;;;;;;12.77;100.00;98510.34;4119779;28;20729;-59
2023/04/29 06:43:59;;;;;;;4.30;2.80;;;;;;;12.86;100.00;98518.91;4123493;28;20697;-58
2023/04/29 06:46:00;;;;;;;3.55;3.25;;;;;;;13.07;100.00;98507.84;4122157;28;20232;-59
2023/04/29 06:48:02;;;;;;;6.38;3.50;;;;;;;13.21;100.00;98511.75;4122760;28;20221;-58
2023/04/29 06:50:04;;;;;;;6.75;3.70;;;;;;;13.29;100.00;98518.69;4124754;28;20202;-58
2023/04/29 06:52:06;;;;;;;5.65;3.90;;;;;;;13.23;100.00;98515.06;4093319;28;20208;-59
2023/04/29 06:54:08;;;;;;;3.33;2.90;;;;;;;13.18;100.00;98517.78;4123228;28;20686;-59
2023/04/29 06:56:10;;;;;;;4.18;3.40;;;;;;;13.19;100.00;98515.84;4122592;28;20234;-59
2023/04/29 06:58:12;;;;;;;3.83;3.53;;;;;;;13.31;100.00;98514.53;4121277;28;20236;-59
2023/04/29 07:00:15;;;;;;;9.50;2.95;;;;;;;13.37;100.00;98521.72;4125984;28;20217;-59
2023/04/29 07:02:16;;;;;;;4.30;3.17;;;;;;;13.50;100.00;98526.72;4125296;28;20972;-57
2023/04/29 07:04:18;;;;;;;2.80;2.60;;;;;;;13.41;100.00;98522.84;4124869;28;20701;-58
2023/04/29 07:06:20;;;;;;;3.67;3.30;;;;;;;13.46;100.00;98522.88;4107876;28;20265;-59
2023/04/29 07:08:22;;;;;;;3.08;2.80;;;;;;;13.26;100.00;98535.69;4125304;28;20260;-59
2023/04/29 07:10:25;;;;;;;3.55;3.25;;;;;;;13.23;100.00;98537.03;4121674;28;20205;-57
2023/04/29 07:12:26;;;;;;;4.82;3.40;;;;;;;13.18;100.00;98544.44;4123701;28;20221;-60
2023/04/29 07:14:28;;;;;;;3.58;3.28;;;;;;;13.13;100.00;98547.16;4123633;28;21130;-57
2023/04/29 07:16:30;;;;;;;4.13;3.60;;;;;;;13.08;100.00;98550.69;4125313;28;20209;-59
2023/04/29 07:18:31;;;;;;;4.43;3.38;;;;;;;12.98;100.00;98550.63;4124348;28;20233;-58
2023/04/29 07:20:35;;;;;;;4.03;3.65;;;;;;;12.91;100.00;98552.72;4124873;28;20240;-58
2023/04/29 07:22:37;;;;;;;3.60;3.28;;;;;;;12.97;100.00;98564.63;4125137;28;20615;-58
2023/04/29 07:24:38;;;;;;;6.47;4.60;;;;;;;12.81;100.00;98560.91;4124900;28;20681;-60
2023/04/29 07:26:42;;;;;;;4.13;3.42;;;;;;;12.86;100.00;98560.13;4127354;28;20202;-59
2023/04/29 07:28:44;;;;;;;4.13;3.72;;;;;;;12.70;100.00;98558.34;4112485;28;20265;-59
2023/04/29 07:30:48;;;;;;;3.30;3.00;;;;;;;12.78;100.00;98560.59;4126337;28;20213;-59
2023/04/29 07:32:49;;;;;;;3.95;3.55;;;;;;;12.78;100.00;98569.66;4129696;28;20208;-59
2023/04/29 07:34:51;;;;;;;3.90;3.60;;;;;;;12.73;100.00;98575.13;4128590;28;20681;-59
2023/04/29 07:36:53;;;;;;;4.80;3.88;;;;;;;12.71;100.00;98581.97;4123727;28;20214;-59
2023/04/29 07:38:55;;;;;;;4.05;3.65;;;;;;;12.71;100.00;98582.78;4123863;28;20241;-58
2023/04/29 07:40:56;;;;;;;3.80;3.50;;;;;;;12.79;100.00;98576.84;4120583;28;20245;-59
2023/04/29 07:42:58;;;;;;;5.93;3.92;;;;;;;12.78;100.00;98580.66;4122779;28;20636;-57
2023/04/29 07:45:00;;;;;;;4.68;3.85;;;;;;;12.68;100.00;98588.81;4120872;28;20337;-59
2023/04/29 07:47:01;;;;;;;4.13;3.83;;;;;;;12.69;100.00;98589.63;4123965;28;20214;-59
2023/04/29 07:49:04;;;;;;;4.93;3.40;;;;;;;12.79;100.00;98596.06;4104795;28;20234;-59
2023/04/29 07:51:05;;;;;;;3.72;3.42;;;;;;;12.86;100.00;98596.66;4124458;28;20870;-58
2023/04/29 07:53:07;;;;;;;3.72;3.45;;;;;;;12.86;100.00;98591.16;4124036;28;20202;-58
2023/04/29 07:55:09;;;;;;;4.30;3.90;;;;;;;12.75;100.00;98605.91;4121718;28;20276;-59
2023/04/29 07:57:10;;;;;;;5.53;3.97;;;;;;;12.80;100.00;98600.44;4127093;28;20209;-59
2023/04/29 07:59:12;;;;;;;7.22;4.32;;;;;;;12.77;100.00;98605.63;4126214;28;20253;-59
2023/04/29 08:01:14;;;;;;;5.05;4.28;;;;;;;12.90;100.00;98599.72;4125023;28;20231;-57
2023/04/29 08:03:15;;;;;;;4.53;4.13;;;;;;;12.80;100.00;98603.19;4123001;28;20206;-59
2023/04/29 08:05:19;;;;;;;4.47;4.07;;;;;;;12.89;100.00;98604.38;4107344;28;20218;-59
2023/04/29 08:07:21;;;;;;;4.57;4.18;;;;;;;12.91;100.00;98609.59;4121241;28;20217;-59
2023/04/29 08:09:23;;;;;;;3.80;3.42;;;;;;;12.93;100.00;98607.41;4123212;28;20612;-59
2023/04/29 08:11:26;;;;;;;5.65;4.28;;;;;;;12.95;100.00;98617.06;4123307;28;20208;-59
2023/04/29 08:13:27;;;;;;;5.43;4.80;;;;;;;12.81;100.00;98615.84;4123530;28;20313;-58
2023/04/29 08:15:29;;;;;;;6.60;6.00;;;;;;;12.82;100.00;98617.50;4125232;28;20214;-59
2023/04/29 08:17:31;;;;;;;6.32;5.78;;;;;;;12.84;100.00;98612.56;4124191;28;20210;-59
2023/04/29 08:19:32;;;;;;;7.00;6.40;;;;;;;12.78;100.00;98621.84;4107510;28;20610;-58
2023/04/29 08:21:34;;;;;;;7.78;7.15;;;;;;;12.64;100.00;98620.63;4126269;28;20226;-59
2023/04/29 08:23:36;;;;;;;7.43;6.72;;;;;;;12.73;100.00;98632.78;4122333;28;20308;-59
2023/04/29 08:25:42;;;;;;;7.53;6.53;;;;;;;12.66;100.00;98629.44;4126073;28;20779;-58
2023/04/29 08:27:46;;;;;;;6.90;5.75;;;;;;;12.71;100.00;98623.97;4104487;28;20609;-59
2023/04/29 08:29:48;;;;;;;7.18;6.53;;;;;;;12.63;100.00;98623.66;4112288;28;20257;-58
2023/04/29 08:31:50;;;;;;;6.93;6.32;;;;;;;12.58;100.00;98631.81;4123908;28;20229;-59
2023/04/29 08:33:52;;;;;;;7.93;7.28;;;;;;;12.55;100.00;98632.31;4123979;28;20210;-57
2023/04/29 08:35:59;;;;;;;6.20;5.70;;;;;;;12.49;100.00;98633.34;4108444;28;20223;-58
2023/04/29 08:38:00;;;;;;;7.32;6.47;;;;;;;12.51;100.00;98634.75;4123365;28;20226;-58
2023/04/29 08:40:02;;;;;;;7.85;7.10;;;;;;;12.56;100.00;98634.81;4124811;28;20202;-58
2023/04/29 08:42:08;;;;;;;7.15;6.53;;;;;;;12.47;100.00;98639.13;4125453;28;20217;-58
2023/04/29 08:44:09;;;;;;;7.75;6.97;;;;;;;12.48;100.00;98638.03;4125176;28;20692;-58
2023/04/29 08:46:11;;;;;;;7.00;6.40;;;;;;;12.52;100.00;98641.94;4124454;28;20621;-59
2023/04/29 08:48:15;;;;;;;6.95;6.43;;;;;;;12.53;100.00;98649.06;4122504;28;20253;-58
2023/04/29 08:50:17;;;;;;;7.35;6.65;;;;;;;12.61;100.00;98643.09;4124755;28;20225;-58
2023/04/29 08:52:18;;;;;;;7.25;6.63;;;;;;;12.56;100.00;98640.31;4125435;28;20705;-59
2023/04/29 08:54:20;;;;;;;7.30;6.72;;;;;;;12.61;100.00;98648.59;4122198;28;20206;-58
2023/04/29 08:56:22;;;;;;;7.55;6.65;;;;;;;12.52;100.00;98650.16;4120253;28;20194;-58
2023/04/29 08:58:25;;;;;;;7.18;6.47;;;;;;;12.44;100.00;98656.09;4123173;28;20690;-58
2023/04/29 09:00:27;;;;;;;7.18;6.53;;;;;;;12.47;100.00;98658.34;4124322;28;20253;-58
2023/04/29 09:02:28;;;;;;;7.18;6.30;;;;;;;12.53;100.00;98657.31;4107275;28;20211;-59
2023/04/29 09:05:03;;;;;;;6.88;6.28;;;;;;;12.36;100.00;98664.00;4123602;28;20577;-58
2023/04/29 09:07:05;;;;;;;6.38;5.88;;;;;;;12.40;100.00;98668.69;4125880;28;20198;-58
2023/04/29 09:09:07;;;;;;;7.07;6.57;;;;;;;12.50;100.00;98668.78;4126038;28;20251;-58
2023/04/29 09:11:10;;;;;;;10.20;5.95;;;;;;;12.50;100.00;98671.53;4109291;28;20243;-58
2023/04/29 09:13:25;;;;;;;6.78;6.18;;;;;;;12.44;100.00;98675.31;4124143;28;20216;-58
2023/04/29 09:15:27;;;;;;;6.47;5.32;;;;;;;12.49;100.00;98682.75;4125114;28;20556;-58
2023/04/29 09:17:46;;;;;;;8.63;6.03;;;;;;;12.51;100.00;98675.94;4123213;28;20258;-58
2023/04/29 09:19:48;;;;;;;5.13;4.72;;;;;;;12.35;100.00;98681.50;4123645;28;20210;-58
2023/04/29 09:21:55;;;;;;;6.22;5.72;;;;;;;12.06;99.03;98683.66;4120543;28;20479;-59
2023/04/29 09:23:59;;;;;;;4.95;4.45;;;;;;;11.79;99.77;98687.41;4125392;28;20325;-59
2023/04/29 09:26:00;;;;;;;5.03;4.57;;;;;;;11.86;100.00;98690.78;4126409;28;20713;-58
2023/04/29 09:28:15;;;;;;;4.75;4.10;;;;;;;12.01;100.00;98690.97;4125272;28;20229;-59
2023/04/29 09:30:18;;;;;;;5.03;4.53;;;;;;;12.08;100.00;98691.63;4126555;28;20210;-59
2023/04/29 09:32:20;;;;;;;4.57;4.00;;;;;;;12.14;100.00;98690.59;4122122;28;20709;-59